Time;durP1;ratioP1;P1;durP2;ratioP2;P2;SDS_P1;SDS_P2;PMS_P1;PMS_P2;Temp;Humidity;BMP_temperature;BMP_pressure;BME280_temperature;BME280_humidity;BME280_pressure;Samples;Min_cycle;Max_cycle;Signal;HPM_P1;HPM_P2
2024/01/08 00:00:55;;;;;;;;;;;11.90;69.20;;;;;;6215021;23;19930;-75
2024/01/08 00:03:21;;;;;;;;;;;13.20;69.70;;;;;;6214904;23;19908;-75
2024/01/08 00:05:47;;;;;;;;;;;11.90;69.40;;;;;;6215778;23;19950;-71
2024/01/08 00:08:14;;;;;;;;;;;11.90;69.30;;;;;;6213616;23;19919;-71
2024/01/08 00:10:40;;;;;;;;;;;11.90;69.10;;;;;;6215162;23;19904;-71
2024/01/08 00:13:06;;;;;;;;;;;11.90;68.90;;;;;;6214924;23;19951;-71
2024/01/08 00:15:32;;;;;;;;;;;11.80;69.00;;;;;;6215379;23;20197;-71
2024/01/08 00:17:58;;;;;;;;;;;11.90;69.00;;;;;;6215313;23;19904;-75
2024/01/08 00:20:24;;;;;;;;;;;11.80;69.10;;;;;;6214759;23;20370;-75
2024/01/08 00:22:50;;;;;;;;;;;11.80;69.00;;;;;;6214794;23;19904;-75
2024/01/08 00:25:21;;;;;;;;;;;11.80;68.70;;;;;;6215244;23;19904;-75
2024/01/08 00:27:50;;;;;;;;;;;11.90;68.70;;;;;;6224479;23;19911;-74
2024/01/08 00:30:16;;;;;;;;;;;11.80;69.20;;;;;;6224642;23;19950;-75
2024/01/08 00:32:42;;;;;;;;;;;11.80;69.20;;;;;;6224667;23;19904;-75
2024/01/08 00:35:07;;;;;;;;;;;11.80;68.90;;;;;;6224676;23;20445;-71
2024/01/08 00:37:35;;;;;;;;;;;11.80;67.30;;;;;;6216672;23;19911;-71
2024/01/08 00:40:02;;;;;;;;;;;11.80;69.30;;;;;;6216852;23;19908;-71
2024/01/08 00:42:28;;;;;;;;;;;11.80;69.20;;;;;;6216958;23;19911;-71
2024/01/08 00:44:54;;;;;;;;;;;11.70;68.80;;;;;;6216977;23;20275;-71
2024/01/08 00:47:20;;;;;;;;;;;11.80;68.90;;;;;;6216600;23;19912;-71
2024/01/08 00:49:46;;;;;;;;;;;11.70;68.80;;;;;;6216573;23;19934;-71
2024/01/08 00:52:12;;;;;;;;;;;11.70;68.90;;;;;;6217061;23;19904;-75
2024/01/08 00:54:38;;;;;;;;;;;11.70;68.80;;;;;;6216996;23;19911;-75
2024/01/08 00:57:04;;;;;;;;;;;11.70;68.60;;;;;;6216931;23;19926;-75
2024/01/08 00:59:30;;;;;;;;;;;11.80;68.80;;;;;;6216533;23;19911;-75
2024/01/08 01:01:57;;;;;;;;;;;11.70;68.80;;;;;;6216807;23;19904;-75
2024/01/08 01:04:23;;;;;;;;;;;11.70;69.10;;;;;;6216698;23;19911;-75
2024/01/08 01:06:49;;;;;;;;;;;11.50;69.00;;;;;;6216888;23;19916;-75
2024/01/08 01:09:15;;;;;;;;;;;11.70;69.10;;;;;;6216834;23;20314;-75
2024/01/08 01:11:41;;;;;;;;;;;11.70;69.10;;;;;;6216568;23;19904;-75
2024/01/08 01:14:06;;;;;;;;;;;13.20;69.90;;;;;;6216432;23;19946;-75
2024/01/08 01:16:33;;;;;;;;;;;11.70;69.00;;;;;;6216529;23;19904;-75
2024/01/08 01:18:59;;;;;;;;;;;11.50;69.10;;;;;;6216369;23;19970;-75
2024/01/08 01:21:27;;;;;;;;;;;11.60;69.00;;;;;;6217321;23;19934;-75
2024/01/08 01:23:53;;;;;;;;;;;11.60;69.00;;;;;;6216334;23;19911;-75
2024/01/08 01:26:19;;;;;;;;;;;11.60;69.00;;;;;;6216297;23;20391;-75
2024/01/08 01:28:45;;;;;;;;;;;11.60;69.20;;;;;;6216473;23;19966;-75
2024/01/08 01:31:11;;;;;;;;;;;11.60;69.00;;;;;;6216708;23;19912;-75
2024/01/08 01:33:37;;;;;;;;;;;11.60;68.80;;;;;;6216028;23;19908;-71
2024/01/08 01:36:03;;;;;;;;;;;11.60;69.00;;;;;;6216067;23;19904;-71
2024/01/08 01:38:29;;;;;;;;;;;11.60;68.10;;;;;;6216023;23;19931;-71
2024/01/08 01:40:54;;;;;;;;;;;11.50;68.80;;;;;;6215906;23;19986;-71
2024/01/08 01:43:21;;;;;;;;;;;11.60;68.90;;;;;;6215867;23;19904;-71
2024/01/08 01:45:48;;;;;;;;;;;11.60;68.70;;;;;;6216114;23;19904;-71
2024/01/08 01:48:14;;;;;;;;;;;11.50;68.90;;;;;;6215870;23;20264;-71
2024/01/08 01:50:40;;;;;;;;;;;11.60;68.40;;;;;;6216940;23;19923;-75
2024/01/08 01:53:06;;;;;;;;;;;11.50;69.10;;;;;;6215803;23;20257;-75
2024/01/08 01:55:32;;;;;;;;;;;11.40;68.70;;;;;;6216391;23;19904;-75
2024/01/08 01:57:58;;;;;;;;;;;11.40;68.80;;;;;;6216129;23;19963;-75
2024/01/08 02:00:24;;;;;;;;;;;11.40;69.00;;;;;;6215934;23;19904;-75
2024/01/08 02:02:50;;;;;;;;;;;11.40;68.80;;;;;;6216254;23;19910;-75
2024/01/08 02:05:17;;;;;;;;;;;11.50;69.00;;;;;;6215968;23;19928;-75
2024/01/08 02:07:43;;;;;;;;;;;11.50;68.80;;;;;;6216228;23;19965;-75
2024/01/08 02:10:09;;;;;;;;;;;11.40;69.30;;;;;;6216134;23;19908;-75
2024/01/08 02:12:35;;;;;;;;;;;11.40;69.40;;;;;;6216258;23;20401;-75
2024/01/08 02:15:04;;;;;;;;;;;11.50;69.40;;;;;;6216360;23;19904;-75
2024/01/08 02:17:39;;;;;;;;;;;11.40;69.20;;;;;;6215982;23;19910;-75
2024/01/08 02:20:05;;;;;;;;;;;11.40;69.00;;;;;;6217851;23;19962;-75
2024/01/08 02:22:31;;;;;;;;;;;11.50;67.40;;;;;;6216041;23;19950;-75
2024/01/08 02:24:57;;;;;;;;;;;11.40;69.30;;;;;;6216125;23;19943;-75
2024/01/08 02:27:23;;;;;;;;;;;11.50;69.20;;;;;;6215651;23;19944;-75
2024/01/08 02:29:49;;;;;;;;;;;11.40;69.00;;;;;;6215736;23;19954;-71
2024/01/08 02:32:15;;;;;;;;;;;11.40;68.70;;;;;;6215718;23;19907;-71
2024/01/08 02:34:40;;;;;;;;;;;11.40;68.80;;;;;;6215611;23;19944;-71
2024/01/08 02:37:06;;;;;;;;;;;11.30;68.70;;;;;;6215709;23;19911;-71
2024/01/08 02:39:32;;;;;;;;;;;11.40;69.10;;;;;;6216001;23;19904;-71
2024/01/08 02:41:58;;;;;;;;;;;11.40;69.20;;;;;;6215976;23;19904;-71
2024/01/08 02:44:24;;;;;;;;;;;11.40;68.90;;;;;;6215922;23;20323;-71
2024/01/08 02:46:50;;;;;;;;;;;11.40;69.00;;;;;;6216199;23;19991;-75
2024/01/08 02:49:16;;;;;;;;;;;11.30;69.00;;;;;;6215549;23;19932;-75
2024/01/08 02:51:42;;;;;;;;;;;11.40;69.00;;;;;;6216043;23;19904;-75
2024/01/08 02:54:08;;;;;;;;;;;11.30;69.00;;;;;;6215974;23;19904;-75
2024/01/08 02:56:34;;;;;;;;;;;11.30;69.00;;;;;;6215615;23;20331;-75
2024/01/08 02:59:05;;;;;;;;;;;11.30;68.20;;;;;;6214525;23;19959;-75
2024/01/08 03:01:32;;;;;;;;;;;11.30;68.70;;;;;;6225462;23;20353;-75
2024/01/08 03:03:58;;;;;;;;;;;11.40;69.30;;;;;;6215755;23;19904;-75
2024/01/08 03:06:23;;;;;;;;;;;11.30;69.30;;;;;;6215097;23;19912;-75
2024/01/08 03:08:49;;;;;;;;;;;11.30;69.10;;;;;;6215414;23;19907;-75
2024/01/08 03:11:16;;;;;;;;;;;11.30;69.00;;;;;;6215540;23;19935;-75
2024/01/08 03:13:41;;;;;;;;;;;11.30;69.40;;;;;;6215433;23;20355;-75
2024/01/08 03:16:08;;;;;;;;;;;11.30;69.20;;;;;;6215955;23;19946;-71
2024/01/08 03:18:33;;;;;;;;;;;11.20;69.10;;;;;;6215347;23;19965;-70
2024/01/08 03:20:59;;;;;;;;;;;11.20;69.30;;;;;;6225526;23;19916;-70
2024/01/08 03:23:25;;;;;;;;;;;11.20;69.30;;;;;;6225201;23;19904;-71
2024/01/08 03:25:50;;;;;;;;;;;11.30;69.30;;;;;;6225299;23;20282;-75
2024/01/08 03:28:16;;;;;;;;;;;11.40;69.40;;;;;;6225026;23;19935;-75
2024/01/08 03:30:41;;;;;;;;;;;11.30;69.20;;;;;;6213336;23;19950;-75
2024/01/08 03:33:07;;;;;;;;;;;11.20;69.10;;;;;;6215008;23;19932;-75
2024/01/08 03:35:33;;;;;;;;;;;11.20;69.00;;;;;;6215598;23;19983;-75
2024/01/08 03:37:59;;;;;;;;;;;11.20;68.90;;;;;;6215561;23;19911;-75
2024/01/08 03:40:25;;;;;;;;;;;11.20;68.80;;;;;;6215532;23;19935;-75
2024/01/08 03:42:50;;;;;;;;;;;11.20;68.70;;;;;;6214879;23;20284;-75
2024/01/08 03:45:16;;;;;;;;;;;11.20;68.70;;;;;;6215590;23;19904;-71
2024/01/08 03:47:42;;;;;;;;;;;11.20;68.70;;;;;;6215401;23;19958;-71
2024/01/08 03:50:08;;;;;;;;;;;11.20;68.60;;;;;;6215506;23;19975;-71
2024/01/08 03:52:34;;;;;;;;;;;11.20;68.50;;;;;;6214738;23;20275;-71
2024/01/08 03:54:59;;;;;;;;;;;11.20;69.00;;;;;;6214893;23;19923;-71
2024/01/08 03:57:25;;;;;;;;;;;11.20;69.00;;;;;;6214811;23;19986;-71
2024/01/08 03:59:50;;;;;;;;;;;11.10;68.90;;;;;;6214810;23;19904;-71
2024/01/08 04:02:16;;;;;;;;;;;11.20;68.50;;;;;;6215395;23;19954;-71
2024/01/08 04:04:44;;;;;;;;;;;11.20;69.10;;;;;;6214819;23;20332;-71
2024/01/08 04:07:10;;;;;;;;;;;11.10;69.20;;;;;;6214677;23;19912;-71
2024/01/08 04:09:36;;;;;;;;;;;11.10;69.20;;;;;;6215016;23;19904;-71
2024/01/08 04:12:05;;;;;;;;;;;11.10;69.60;;;;;;6216816;23;19904;-71
2024/01/08 04:14:31;;;;;;;;;;;11.10;65.40;;;;;;6217023;23;19904;-75
2024/01/08 04:16:56;;;;;;;;;;;11.10;69.30;;;;;;6216992;23;19911;-75
2024/01/08 04:19:22;;;;;;;;;;;11.10;68.60;;;;;;6216643;23;19916;-75
2024/01/08 04:21:48;;;;;;;;;;;11.10;68.60;;;;;;6217463;23;19904;-75
2024/01/08 04:24:14;;;;;;;;;;;11.10;68.50;;;;;;6217335;23;20339;-74
2024/01/08 04:26:40;;;;;;;;;;;11.00;68.60;;;;;;6217333;23;20371;-75
2024/01/08 04:29:06;;;;;;;;;;;11.10;68.70;;;;;;6217023;23;19907;-75
2024/01/08 04:31:32;;;;;;;;;;;11.00;68.50;;;;;;6217936;23;19915;-71
2024/01/08 04:33:57;;;;;;;;;;;11.10;68.60;;;;;;6217154;23;20287;-71
2024/01/08 04:36:23;;;;;;;;;;;11.00;68.70;;;;;;6217193;23;19965;-70
2024/01/08 04:38:49;;;;;;;;;;;11.00;68.60;;;;;;6217109;23;20323;-71
2024/01/08 04:41:22;;;;;;;;;;;11.40;68.90;;;;;;6217333;23;19939;-75
2024/01/08 04:43:48;;;;;;;;;;;11.00;63.70;;;;;;6216983;23;20392;-75
2024/01/08 04:46:14;;;;;;;;;;;11.00;68.80;;;;;;6217090;23;19903;-75
2024/01/08 04:48:41;;;;;;;;;;;11.00;68.70;;;;;;6217213;23;19903;-75
2024/01/08 04:51:07;;;;;;;;;;;11.00;68.90;;;;;;6217082;23;20219;-75
2024/01/08 04:53:34;;;;;;;;;;;11.00;68.60;;;;;;6216760;23;19904;-75
2024/01/08 04:56:00;;;;;;;;;;;10.90;68.80;;;;;;6217038;23;19904;-75
2024/01/08 04:58:26;;;;;;;;;;;11.00;68.70;;;;;;6217118;23;19904;-74
2024/01/08 05:06:34;;;;;;;;;;;11.00;67.50;;;;;;6287579;22;20045;-71
2024/01/08 05:09:00;;;;;;;;;;;11.00;67.10;;;;;;6277020;22;20341;-71
2024/01/08 05:11:26;;;;;;;;;;;10.80;72.00;;;;;;6277158;22;19914;-71
2024/01/08 05:13:51;;;;;;;;;;;10.90;72.20;;;;;;6277020;22;19903;-71
2024/01/08 05:16:17;;;;;;;;;;;11.00;72.30;;;;;;6276952;22;20006;-70
2024/01/08 05:18:43;;;;;;;;;;;11.20;72.20;;;;;;6276823;22;19903;-69
2024/01/08 05:21:12;;;;;;;;;;;10.80;71.90;;;;;;6276863;22;19953;-70
2024/01/08 05:23:40;;;;;;;;;;;10.90;72.30;;;;;;6285835;22;20576;-70
2024/01/08 05:26:06;;;;;;;;;;;10.80;72.00;;;;;;6287119;22;20338;-70
2024/01/08 05:28:31;;;;;;;;;;;10.80;71.80;;;;;;6287099;22;19914;-70
2024/01/08 05:30:57;;;;;;;;;;;11.20;72.00;;;;;;6287118;22;19903;-70
2024/01/08 05:33:22;;;;;;;;;;;10.80;71.80;;;;;;6277165;22;19910;-70
2024/01/08 05:35:48;;;;;;;;;;;10.80;71.80;;;;;;6277323;22;20245;-70
2024/01/08 05:38:13;;;;;;;;;;;10.80;71.90;;;;;;6277466;22;19930;-70
2024/01/08 05:40:39;;;;;;;;;;;11.10;72.00;;;;;;6276570;22;19907;-70
2024/01/08 05:43:04;;;;;;;;;;;10.70;71.40;;;;;;6276714;22;19934;-70
2024/01/08 05:45:30;;;;;;;;;;;10.80;71.30;;;;;;6276661;22;19904;-70
2024/01/08 05:47:56;;;;;;;;;;;10.70;71.20;;;;;;6287115;22;19918;-70
2024/01/08 05:50:22;;;;;;;;;;;10.70;71.30;;;;;;6277351;22;19903;-70
2024/01/08 05:52:47;;;;;;;;;;;10.70;71.40;;;;;;6276622;22;19903;-70
2024/01/08 05:55:14;;;;;;;;;;;10.80;71.30;;;;;;6276573;22;19903;-70
2024/01/08 05:57:39;;;;;;;;;;;10.70;71.30;;;;;;6276466;22;20406;-70
2024/01/08 06:00:05;;;;;;;;;;;10.90;71.40;;;;;;6276552;22;19942;-70
2024/01/08 06:02:31;;;;;;;;;;;10.70;70.90;;;;;;6276246;22;20000;-70
2024/01/08 06:04:57;;;;;;;;;;;10.60;71.00;;;;;;6277627;22;19907;-70
2024/01/08 06:07:22;;;;;;;;;;;10.70;71.20;;;;;;6276484;22;19974;-70
2024/01/08 06:09:48;;;;;;;;;;;10.70;71.20;;;;;;6276408;22;19903;-70
2024/01/08 06:12:13;;;;;;;;;;;10.80;71.20;;;;;;6276529;22;19903;-70
2024/01/08 06:14:41;;;;;;;;;;;11.40;71.20;;;;;;6276479;22;19903;-70
2024/01/08 06:17:10;;;;;;;;;;;10.60;70.80;;;;;;6276546;22;19953;-70
2024/01/08 06:19:35;;;;;;;;;;;10.60;65.80;;;;;;6276497;22;19904;-70
2024/01/08 06:22:01;;;;;;;;;;;10.80;70.30;;;;;;6276961;22;19904;-70
2024/01/08 06:24:26;;;;;;;;;;;10.70;70.60;;;;;;6276391;22;19949;-71
2024/01/08 06:26:52;;;;;;;;;;;10.60;70.30;;;;;;6275799;22;19911;-70
2024/01/08 06:29:17;;;;;;;;;;;10.50;70.20;;;;;;6277199;22;19904;-69
2024/01/08 06:31:43;;;;;;;;;;;10.90;70.30;;;;;;6279349;22;19914;-69
2024/01/08 06:34:09;;;;;;;;;;;10.60;70.40;;;;;;6276318;22;19910;-69
2024/01/08 06:36:34;;;;;;;;;;;10.50;70.10;;;;;;6276251;22;19903;-69
2024/01/08 06:39:00;;;;;;;;;;;11.20;70.50;;;;;;6276151;22;19939;-70
2024/01/08 06:41:26;;;;;;;;;;;11.00;70.40;;;;;;6276130;22;20322;-70
2024/01/08 06:43:51;;;;;;;;;;;10.50;69.50;;;;;;6276128;22;19907;-70
2024/01/08 06:46:17;;;;;;;;;;;10.80;70.40;;;;;;6276070;22;20319;-70
2024/01/08 06:48:42;;;;;;;;;;;10.50;69.90;;;;;;6276022;22;20222;-69
2024/01/08 06:51:08;;;;;;;;;;;10.70;70.10;;;;;;6275975;22;19907;-70
2024/01/08 06:53:33;;;;;;;;;;;10.50;70.20;;;;;;6276061;22;20383;-69
2024/01/08 06:55:59;;;;;;;;;;;10.90;70.50;;;;;;6276000;22;19907;-70
2024/01/08 06:58:25;;;;;;;;;;;11.10;70.50;;;;;;6276617;22;20282;-69
2024/01/08 07:00:50;;;;;;;;;;;11.00;70.50;;;;;;6276467;22;19903;-69
2024/01/08 07:03:17;;;;;;;;;;;10.50;70.20;;;;;;6276151;22;19915;-69
2024/01/08 07:05:43;;;;;;;;;;;10.70;70.40;;;;;;6276671;22;19966;-69
2024/01/08 07:08:09;;;;;;;;;;;11.10;70.60;;;;;;6276287;22;19922;-70
2024/01/08 07:10:35;;;;;;;;;;;10.30;70.50;;;;;;6276190;22;19903;-70
2024/01/08 07:13:01;;;;;;;;;;;10.40;70.10;;;;;;6276584;22;19923;-70
2024/01/08 07:15:48;;;;;;;;;;;10.50;70.40;;;;;;6276185;22;19910;-69
2024/01/08 07:18:15;;;;;;;;;;;10.40;65.40;;;;;;6286529;22;19903;-69
2024/01/08 07:20:41;;;;;;;;;;;10.40;70.70;;;;;;6276187;22;20225;-70
2024/01/08 07:23:08;;;;;;;;;;;10.40;70.60;;;;;;6275795;22;19903;-70
2024/01/08 07:25:34;;;;;;;;;;;10.50;70.70;;;;;;6275850;22;19904;-70
2024/01/08 07:28:00;;;;;;;;;;;11.20;71.20;;;;;;6275609;22;19969;-69
2024/01/08 07:30:25;;;;;;;;;;;10.40;70.70;;;;;;6276367;22;19926;-70
2024/01/08 07:32:51;;;;;;;;;;;10.50;70.40;;;;;;6276559;22;19903;-70
2024/01/08 07:35:17;;;;;;;;;;;10.70;70.80;;;;;;6275761;22;19911;-69
2024/01/08 07:37:42;;;;;;;;;;;10.40;70.30;;;;;;6276479;22;19982;-71
2024/01/08 07:40:08;;;;;;;;;;;10.50;70.50;;;;;;6275639;22;19929;-68
2024/01/08 07:42:33;;;;;;;;;;;10.50;68.80;;;;;;6276478;22;20452;-68
2024/01/08 07:44:59;;;;;;;;;;;10.50;70.70;;;;;;6275560;22;19930;-67
2024/01/08 07:47:24;;;;;;;;;;;10.50;70.50;;;;;;6275486;22;19962;-70
2024/01/08 07:49:50;;;;;;;;;;;10.50;70.80;;;;;;6275743;22;19968;-70
2024/01/08 07:52:15;;;;;;;;;;;10.50;70.80;;;;;;6275701;22;19903;-70
2024/01/08 07:54:41;;;;;;;;;;;10.50;70.50;;;;;;6275748;22;19903;-69
2024/01/08 07:57:06;;;;;;;;;;;10.60;71.20;;;;;;6249144;22;19903;-68
2024/01/08 07:59:32;;;;;;;;;;;10.70;71.10;;;;;;6275658;22;19914;-69
2024/01/08 08:01:57;;;;;;;;;;;10.50;70.40;;;;;;6275358;22;20456;-69
2024/01/08 08:04:23;;;;;;;;;;;11.10;70.90;;;;;;6275735;22;19904;-70
2024/01/08 08:06:48;;;;;;;;;;;10.50;70.50;;;;;;6275550;22;19911;-72
2024/01/08 08:09:13;;;;;;;;;;;11.60;71.20;;;;;;6275767;22;19911;-70
2024/01/08 08:11:39;;;;;;;;;;;11.30;70.90;;;;;;6275804;22;20395;-70
2024/01/08 08:14:05;;;;;;;;;;;10.50;70.50;;;;;;6275700;22;19941;-70
2024/01/08 08:16:30;;;;;;;;;;;10.60;70.50;;;;;;6275702;22;19911;-70
2024/01/08 08:18:56;;;;;;;;;;;11.10;70.70;;;;;;6275671;22;20282;-70
2024/01/08 08:21:21;;;;;;;;;;;11.30;71.00;;;;;;6275559;22;19904;-70
2024/01/08 08:23:47;;;;;;;;;;;11.40;71.00;;;;;;6276226;22;19903;-70
2024/01/08 08:26:12;;;;;;;;;;;11.20;71.00;;;;;;6276033;22;19953;-70
2024/01/08 08:28:38;;;;;;;;;;;10.70;70.70;;;;;;6275468;22;20219;-69
2024/01/08 08:31:04;;;;;;;;;;;10.70;70.60;;;;;;6276169;22;19903;-70
2024/01/08 08:33:30;;;;;;;;;;;10.70;70.30;;;;;;6276285;22;19961;-70
2024/01/08 08:35:56;;;;;;;;;;;10.70;70.20;;;;;;6276154;22;19971;-70
2024/01/08 08:38:22;;;;;;;;;;;10.70;70.20;;;;;;6275840;22;19903;-70
2024/01/08 08:40:48;;;;;;;;;;;10.60;70.30;;;;;;6276250;22;19904;-70
2024/01/08 08:43:13;;;;;;;;;;;10.60;70.30;;;;;;6276136;22;19903;-70
2024/01/08 08:45:39;;;;;;;;;;;11.40;70.70;;;;;;6276112;22;19986;-70
2024/01/08 08:48:05;;;;;;;;;;;11.20;70.40;;;;;;6275733;22;19942;-70
2024/01/08 08:50:31;;;;;;;;;;;10.70;69.50;;;;;;6276064;22;19907;-70
2024/01/08 08:52:58;;;;;;;;;;;11.40;70.20;;;;;;6276230;22;19983;-70
2024/01/08 08:55:24;;;;;;;;;;;10.80;70.20;;;;;;6276690;22;19903;-70
2024/01/08 08:57:50;;;;;;;;;;;11.30;70.30;;;;;;6277177;22;20387;-70
2024/01/08 09:00:16;;;;;;;;;;;10.70;70.50;;;;;;6277946;22;19904;-70
2024/01/08 09:02:42;;;;;;;;;;;10.80;70.20;;;;;;6277468;22;19985;-78
2024/01/08 09:05:08;;;;;;;;;;;10.60;70.20;;;;;;6250240;22;19908;-69
2024/01/08 09:07:33;;;;;;;;;;;10.70;69.90;;;;;;6277377;22;19938;-70
2024/01/08 09:10:00;;;;;;;;;;;10.80;70.00;;;;;;6277738;22;19903;-71
2024/01/08 09:12:26;;;;;;;;;;;11.40;70.90;;;;;;6277627;22;19903;-70
2024/01/08 09:14:55;;;;;;;;;;;11.40;70.70;;;;;;6278631;22;19910;-71
2024/01/08 09:17:20;;;;;;;;;;;11.40;70.90;;;;;;6287745;22;19903;-70
2024/01/08 09:19:49;;;;;;;;;;;10.80;71.00;;;;;;6277283;22;19910;-69
2024/01/08 09:22:15;;;;;;;;;;;11.00;71.30;;;;;;6277624;22;19983;-70
2024/01/08 09:24:41;;;;;;;;;;;11.40;71.40;;;;;;6277366;22;19982;-70
2024/01/08 09:27:06;;;;;;;;;;;11.00;71.40;;;;;;6277388;22;19943;-69
2024/01/08 09:29:32;;;;;;;;;;;11.40;71.20;;;;;;6277280;22;19904;-69
2024/01/08 09:31:58;;;;;;;;;;;10.70;71.00;;;;;;6277709;22;19903;-70
2024/01/08 09:34:24;;;;;;;;;;;11.40;71.20;;;;;;6277557;22;19903;-69
2024/01/08 09:36:50;;;;;;;;;;;10.80;71.00;;;;;;6277255;22;19914;-71
2024/01/08 09:39:16;;;;;;;;;;;11.40;71.10;;;;;;6277189;22;19904;-70
2024/01/08 09:41:44;;;;;;;;;;;10.70;70.60;;;;;;6277480;22;19911;-70
2024/01/08 09:44:13;;;;;;;;;;;11.40;71.40;;;;;;6277004;22;19907;-70
2024/01/08 09:46:43;;;;;;;;;;;10.80;71.10;;;;;;6277085;22;19950;-70
2024/01/08 09:49:11;;;;;;;;;;;11.10;71.10;;;;;;6277265;22;19910;-70
2024/01/08 09:51:38;;;;;;;;;;;11.30;71.20;;;;;;6277712;22;19903;-71
2024/01/08 09:54:04;;;;;;;;;;;10.80;70.30;;;;;;6282205;22;19903;-73
2024/01/08 09:56:30;;;;;;;;;;;10.80;70.70;;;;;;6277081;22;20006;-70
2024/01/08 09:58:56;;;;;;;;;;;10.80;70.40;;;;;;6277474;22;20331;-71
2024/01/08 10:01:22;;;;;;;;;;;10.90;70.20;;;;;;6277094;22;19918;-71
2024/01/08 10:03:48;;;;;;;;;;;10.90;71.00;;;;;;6276609;22;19915;-72
2024/01/08 10:06:13;;;;;;;;;;;11.40;70.70;;;;;;6276754;22;19918;-72
2024/01/08 10:08:39;;;;;;;;;;;11.00;70.30;;;;;;6276972;22;19908;-72
2024/01/08 10:11:06;;;;;;;;;;;11.00;70.30;;;;;;6277335;22;19919;-72
2024/01/08 10:13:32;;;;;;;;;;;11.10;70.50;;;;;;6276745;22;19974;-72
2024/01/08 10:15:58;;;;;;;;;;;11.40;70.50;;;;;;6276895;22;19934;-72
2024/01/08 10:18:24;;;;;;;;;;;10.90;70.20;;;;;;6277294;22;19910;-72
2024/01/08 10:21:06;;;;;;;;;;;11.60;70.60;;;;;;6276545;22;19907;-72
2024/01/08 10:23:31;;;;;;;;;;;11.60;70.50;;;;;;6276567;22;19903;-72
2024/01/08 10:25:57;;;;;;;;;;;11.60;70.30;;;;;;6276472;22;19954;-72
2024/01/08 10:28:22;;;;;;;;;;;11.80;70.40;;;;;;6276466;22;20315;-72
2024/01/08 10:30:48;;;;;;;;;;;11.20;69.80;;;;;;6276567;22;19910;-72
2024/01/08 10:33:16;;;;;;;;;;;11.80;70.00;;;;;;6276520;22;19962;-71
2024/01/08 10:35:42;;;;;;;;;;;11.70;69.90;;;;;;6286668;22;19988;-71
2024/01/08 10:38:08;;;;;;;;;;;11.20;69.80;;;;;;6276430;22;20226;-72
2024/01/08 10:40:35;;;;;;;;;;;11.70;70.60;;;;;;6277088;22;19908;-72
2024/01/08 10:43:00;;;;;;;;;;;11.80;70.10;;;;;;6276451;22;19914;-72
2024/01/08 10:45:26;;;;;;;;;;;11.50;70.00;;;;;;6276425;22;20310;-72
2024/01/08 10:47:58;;;;;;;;;;;11.10;69.70;;;;;;6276947;22;19988;-72
2024/01/08 10:50:23;;;;;;;;;;;11.20;69.70;;;;;;6276566;22;19904;-72
2024/01/08 10:52:53;;;;;;;;;;;11.00;70.00;;;;;;6276275;22;20286;-72
2024/01/08 10:55:21;;;;;;;;;;;11.10;64.90;;;;;;6276995;22;20207;-72
2024/01/08 10:57:54;;;;;;;;;;;11.10;70.30;;;;;;6276715;22;19904;-71
2024/01/08 11:00:20;;;;;;;;;;;11.20;65.40;;;;;;6276594;22;19907;-72
2024/01/08 11:02:46;;;;;;;;;;;11.10;70.20;;;;;;6276263;22;19919;-72
2024/01/08 11:05:13;;;;;;;;;;;11.10;70.10;;;;;;6276833;22;19907;-70
2024/01/08 11:07:40;;;;;;;;;;;11.70;70.40;;;;;;6276379;22;19919;-71
2024/01/08 11:10:09;;;;;;;;;;;11.70;70.70;;;;;;6249703;22;19910;-71
2024/01/08 11:12:35;;;;;;;;;;;11.20;69.30;;;;;;6276611;22;19903;-71
2024/01/08 11:15:02;;;;;;;;;;;11.80;70.20;;;;;;6276124;22;19904;-71
2024/01/08 11:17:28;;;;;;;;;;;11.90;70.40;;;;;;6276028;22;20286;-71
2024/01/08 11:19:55;;;;;;;;;;;11.30;69.80;;;;;;6276344;22;19982;-70
2024/01/08 11:22:21;;;;;;;;;;;11.80;69.60;;;;;;6276096;22;19903;-71
2024/01/08 11:24:47;;;;;;;;;;;11.30;69.20;;;;;;6277181;22;19943;-71
2024/01/08 11:27:16;;;;;;;;;;;11.90;69.50;;;;;;6276529;22;19911;-70
2024/01/08 11:29:54;;;;;;;;;;;11.30;64.20;;;;;;6276530;22;19903;-70
2024/01/08 11:32:36;;;;;;;;;;;11.20;64.50;;;;;;6286624;22;19907;-71
2024/01/08 11:35:07;;;;;;;;;;;11.30;64.40;;;;;;6275850;22;19931;-71
2024/01/08 11:37:34;;;;;;;;;;;11.30;66.00;;;;;;6286906;22;19910;-70
2024/01/08 11:40:20;;;;;;;;;;;11.20;69.40;;;;;;6275815;22;19907;-69
2024/01/08 11:42:47;;;;;;;;;;;11.30;69.60;;;;;;6275662;22;19978;-70
2024/01/08 11:45:13;;;;;;;;;;;11.20;69.80;;;;;;6276382;22;19919;-70
2024/01/08 11:47:40;;;;;;;;;;;11.60;69.90;;;;;;6276360;22;19918;-70
2024/01/08 11:50:06;;;;;;;;;;;11.40;70.50;;;;;;6276373;22;19911;-70
2024/01/08 11:52:33;;;;;;;;;;;11.20;67.70;;;;;;6276054;22;20314;-71
2024/01/08 11:54:59;;;;;;;;;;;11.20;69.50;;;;;;6276519;22;19907;-71
2024/01/08 11:57:25;;;;;;;;;;;11.30;69.70;;;;;;6275793;22;20251;-70
2024/01/08 11:59:52;;;;;;;;;;;12.00;69.80;;;;;;6276388;22;19923;-69
2024/01/08 12:02:19;;;;;;;;;;;11.30;69.00;;;;;;6275828;22;19915;-69
2024/01/08 12:04:50;;;;;;;;;;;11.20;69.50;;;;;;6276460;22;19907;-70
2024/01/08 12:07:16;;;;;;;;;;;11.40;64.00;;;;;;6275609;22;19911;-70
2024/01/08 12:09:41;;;;;;;;;;;11.40;68.90;;;;;;6275741;22;20014;-69
2024/01/08 12:12:08;;;;;;;;;;;11.40;68.10;;;;;;6276793;22;19907;-69
2024/01/08 12:14:34;;;;;;;;;;;11.50;67.30;;;;;;6275762;22;19903;-69
2024/01/08 12:17:01;;;;;;;;;;;11.80;67.90;;;;;;6275589;22;19907;-70
2024/01/08 12:19:36;;;;;;;;;;;11.50;68.30;;;;;;6276231;22;19910;-70
2024/01/08 12:22:03;;;;;;;;;;;11.40;62.80;;;;;;6275727;22;20314;-70
2024/01/08 12:24:29;;;;;;;;;;;11.50;68.00;;;;;;6275914;22;19911;-70
2024/01/08 12:27:01;;;;;;;;;;;11.50;67.90;;;;;;6276175;22;19911;-70
2024/01/08 12:29:28;;;;;;;;;;;11.40;63.40;;;;;;6274769;22;19903;-70
2024/01/08 12:32:00;;;;;;;;;;;11.30;68.50;;;;;;6276055;22;19909;-70
2024/01/08 12:34:27;;;;;;;;;;;11.30;63.20;;;;;;6277656;22;19904;-70
2024/01/08 12:36:53;;;;;;;;;;;11.30;68.20;;;;;;6277668;22;19911;-68
2024/01/08 12:39:19;;;;;;;;;;;11.20;67.60;;;;;;6278157;22;19903;-78
2024/01/08 12:41:44;;;;;;;;;;;11.20;68.00;;;;;;6277742;22;19982;-81
2024/01/08 12:44:10;;;;;;;;;;;11.20;68.20;;;;;;6277598;22;20322;-79
2024/01/08 12:46:36;;;;;;;;;;;11.30;68.30;;;;;;6278129;22;19903;-80
2024/01/08 12:49:02;;;;;;;;;;;11.20;68.40;;;;;;6278186;22;20078;-80
2024/01/08 12:51:28;;;;;;;;;;;11.20;68.50;;;;;;6278226;22;20417;-80
2024/01/08 12:53:54;;;;;;;;;;;11.20;68.40;;;;;;6278187;22;19904;-80
2024/01/08 12:56:20;;;;;;;;;;;11.40;68.70;;;;;;6277583;22;20344;-79
2024/01/08 12:58:49;;;;;;;;;;;11.10;68.70;;;;;;6277755;22;19986;-81
2024/01/08 13:01:15;;;;;;;;;;;11.10;68.30;;;;;;6277964;22;19910;-81
2024/01/08 13:03:41;;;;;;;;;;;11.20;68.80;;;;;;6249813;22;19986;-81
2024/01/08 13:06:09;;;;;;;;;;;10.90;69.00;;;;;;6277020;22;20386;-81
2024/01/08 13:08:35;;;;;;;;;;;11.60;64.90;;;;;;6277911;22;20249;-79
2024/01/08 13:11:01;;;;;;;;;;;11.30;68.50;;;;;;6277340;22;19904;-80
2024/01/08 13:13:27;;;;;;;;;;;11.10;68.50;;;;;;6277375;22;20223;-83
2024/01/08 13:15:52;;;;;;;;;;;11.20;68.90;;;;;;6277657;22;19914;-79
2024/01/08 13:18:18;;;;;;;;;;;11.30;68.90;;;;;;6277428;22;19903;-81
2024/01/08 13:20:43;;;;;;;;;;;11.40;69.00;;;;;;6277494;22;19956;-78
2024/01/08 13:23:09;;;;;;;;;;;11.40;68.90;;;;;;6277913;22;19910;-80
2024/01/08 13:25:35;;;;;;;;;;;11.20;68.70;;;;;;6277780;22;19950;-80
2024/01/08 13:28:01;;;;;;;;;;;11.30;68.30;;;;;;6250506;22;19912;-77
2024/01/08 13:30:29;;;;;;;;;;;11.40;67.70;;;;;;6277114;22;19904;-77
2024/01/08 13:32:54;;;;;;;;;;;11.60;67.80;;;;;;6276975;22;19942;-72
2024/01/08 13:35:21;;;;;;;;;;;11.30;67.00;;;;;;6276898;22;19962;-75
2024/01/08 13:37:48;;;;;;;;;;;11.60;67.40;;;;;;6278087;22;19903;-73
2024/01/08 13:40:13;;;;;;;;;;;11.60;67.00;;;;;;6277102;22;19907;-77
2024/01/08 13:42:39;;;;;;;;;;;11.70;67.00;;;;;;6249607;22;19903;-78
2024/01/08 13:45:05;;;;;;;;;;;11.70;66.60;;;;;;6276438;22;19910;-77
2024/01/08 13:47:31;;;;;;;;;;;11.80;65.00;;;;;;6276884;22;19918;-75
2024/01/08 13:49:56;;;;;;;;;;;11.80;66.30;;;;;;6276956;22;20258;-76
2024/01/08 13:52:22;;;;;;;;;;;12.00;66.30;;;;;;6276930;22;19903;-77
2024/01/08 13:54:47;;;;;;;;;;;11.90;66.00;;;;;;6276928;22;19904;-75
2024/01/08 13:57:13;;;;;;;;;;;12.00;65.70;;;;;;6277118;22;19903;-77
2024/01/08 13:59:39;;;;;;;;;;;11.90;66.50;;;;;;6277063;22;20338;-77
2024/01/08 14:02:07;;;;;;;;;;;11.90;65.30;;;;;;6277308;22;19916;-76
2024/01/08 14:04:33;;;;;;;;;;;12.00;66.10;;;;;;6277807;22;19903;-74
2024/01/08 14:06:59;;;;;;;;;;;12.10;65.70;;;;;;6277285;22;19938;-75
2024/01/08 14:09:25;;;;;;;;;;;12.20;65.40;;;;;;6277276;22;20310;-74
2024/01/08 14:11:51;;;;;;;;;;;12.10;64.90;;;;;;6276637;22;19942;-76
2024/01/08 14:14:17;;;;;;;;;;;12.10;65.30;;;;;;6276759;22;19903;-76
2024/01/08 14:16:42;;;;;;;;;;;13.70;66.00;;;;;;6276855;22;19953;-74